• Join FlightAware (Why Join?)
  • Login
  • US Flag 
11:30PM EDT


 

Airport Tracker/Info


-or-


 

Live Flight TrackerFlight Track Log ✈ KLM1972 ✈ 15-May-2013 ✈ LHBP / BUD - EHAM / AMS

Flight Track Log - Related Links

Times and Time Zones

All times are in EDT time to prevent confusion due to time zone crossing. See the KLM1972 flight status page for this flight to view local times or setup timezone preferences in your user account.

Time Position Orientation Groundspeed Altitude Reporting Facility
EDT Latitude Longitude Course Direction KTS MPH feet Rate Location/Type
12:27AM 47.5276 19.0452 303° West  Level Estimated
12:30AM 47.4640 19.2010 315° West 167 192 1,800  Level FlightAware
12:30AM 47.4960 19.1720 329° Northwest 170 196 3,600 2,040 Climbing FlightAware
12:31AM 47.5130 19.1490 318° Northwest 199 229 4,400 1,500 Climbing FlightAware
12:31AM 47.5360 19.1160 316° Northwest 249 287 5,000 1,560 Climbing FlightAware
12:32AM 47.5500 19.0980 319° Northwest 265 305 5,600 2,820 Climbing FlightAware
12:32AM 47.5740 19.0700 322° Northwest 271 312 6,900 3,420 Climbing FlightAware
12:32AM 47.5920 19.0520 326° Northwest 274 315 7,900 3,300 Climbing FlightAware
12:33AM 47.6200 19.0260 328° Northwest 291 335 9,100 3,000 Climbing FlightAware
12:33AM 47.6370 19.0090 326° Northwest 288 331 9,900 2,100 Climbing FlightAware
12:34AM 47.6920 18.9570 328° Northwest 327 376 11,200 2,040 Climbing FlightAware
12:34AM 47.7480 18.9030 327° Northwest 364 419 12,800 2,580 Climbing FlightAware
12:35AM 47.8120 18.8410 327° Northwest 368 423 14,900 2,880 Climbing FlightAware
12:36AM 47.8710 18.7830 327° Northwest 372 428 16,900 2,700 Climbing FlightAware
12:36AM 47.9300 18.7240 326° Northwest 384 442 18,500 2,280 Climbing FlightAware
12:37AM 48.0000 18.6560 327° Northwest 401 461 20,200 2,220 Climbing FlightAware
12:38AM 48.0610 18.5950 326° Northwest 409 471 21,700 2,040 Climbing FlightAware
12:39AM 48.1330 18.5250 327° Northwest 411 473 23,100 1,800 Climbing FlightAware
12:39AM 48.1980 18.4600 326° Northwest 429 494 24,300 1,680 Climbing FlightAware
12:40AM 48.2670 18.3910 326° Northwest 431 496 25,400 1,620 Climbing FlightAware
12:41AM 48.3770 18.2560 321° Northwest 449 517 27,300 1,560 Climbing FlightAware
12:42AM 48.4490 18.1420 314° West 448 516 28,600 1,380 Climbing FlightAware
12:43AM 48.5220 18.0230 313° West 458 527 29,600 1,320 Climbing FlightAware
12:43AM 48.5790 17.9310 313° West 458 527 30,600 1,440 Climbing FlightAware
12:44AM 48.6320 17.8460 313° West 458 527 31,400 1,380 Climbing FlightAware
12:45AM 48.7050 17.7290 313° West 458 527 32,600 1,440 Climbing FlightAware
12:46AM 48.7790 17.6080 313° West 456 525 33,800 1,440 Climbing FlightAware
12:46AM 48.8440 17.5040 314° West 455 524 34,900 1,320 Climbing FlightAware
12:47AM 48.9070 17.3990 312° West 450 518 35,800 660 Climbing FlightAware
12:48AM 48.9540 17.2610 297° West 447 514 36,000 120 Climbing FlightAware
12:49AM 48.9980 17.1150 295° West 444 511 36,000  Level FlightAware
12:50AM 49.0290 17.0110 294° West 443 510 36,000  Level FlightAware
12:50AM 49.0650 16.8920 295° West 444 511 36,000 60 Level FlightAware
12:51AM 49.1050 16.7580 295° West 444 511 36,100 420 Climbing FlightAware
12:52AM 49.1340 16.6580 294° West 446 513 36,600 600 Climbing FlightAware
12:52AM 49.1780 16.5100 295° West 454 522 37,000 360 Climbing FlightAware
12:53AM 49.2110 16.3980 294° West 461 531 37,200 420 Climbing FlightAware
12:54AM 49.2460 16.2750 294° West 466 536 37,600 540 Climbing FlightAware
12:54AM 49.2850 16.1430 294° West 463 533 38,000 240 Climbing FlightAware
12:55AM 49.3200 16.0240 294° West 459 528 38,000  Level FlightAware
12:56AM 49.3570 15.8930 293° West 459 528 38,000  Level FlightAware
12:57AM 49.3920 15.7710 294° West 458 527 38,000  Level FlightAware
12:57AM 49.4320 15.6310 294° West 458 527 38,000  Level FlightAware
12:58AM 49.4660 15.5120 294° West 459 528 38,000  Level FlightAware
12:59AM 49.4970 15.4010 293° West 457 526 38,000  Level FlightAware
12:59AM 49.5360 15.2610 293° West 457 526 38,000  Level FlightAware
01:00AM 49.5690 15.1410 293° West 456 525 38,000  Level FlightAware
01:01AM 49.6070 15.0070 294° West 456 525 38,000  Level FlightAware
01:01AM 49.6350 14.9050 293° West 455 524 38,000  Level FlightAware
01:02AM 49.6700 14.7770 293° West 453 521 38,000  Level FlightAware
01:03AM 49.7070 14.6400 293° West 452 520 38,000  Level FlightAware
01:04AM 49.7410 14.5150 293° West 451 519 38,000  Level FlightAware
01:04AM 49.7760 14.3840 293° West 450 518 38,000  Level FlightAware
01:05AM 49.8080 14.2620 292° West 449 517 38,000  Level FlightAware
01:06AM 49.8400 14.1470 293° West 449 517 38,000  Level FlightAware
01:06AM 49.8840 14.0160 298° West 451 519 38,000  Level FlightAware
01:07AM 49.9280 13.9050 302° West 451 519 38,000  Level FlightAware
01:08AM 49.9680 13.7960 300° West 451 519 38,000  Level FlightAware
01:08AM 50.0150 13.6720 301° West 453 521 38,000  Level FlightAware
01:09AM 50.0590 13.5540 300° West 452 520 38,000  Level FlightAware
01:10AM 50.1060 13.4270 300° West 453 521 38,000  Level FlightAware
01:11AM 50.1480 13.3140 300° West 453 521 38,000  Level FlightAware
01:11AM 50.1890 13.2010 300° West 453 521 38,000  Level FlightAware
01:12AM 50.2350 13.0760 300° West 453 521 38,000  Level FlightAware
01:13AM 50.2770 12.9590 299° West 452 520 38,000  Level FlightAware
01:13AM 50.3170 12.8510 300° West 453 521 38,000  Level FlightAware
01:14AM 50.3660 12.7180 300° West 453 521 38,000  Level FlightAware
01:15AM 50.4050 12.6090 299° West 452 520 38,000  Level FlightAware
01:15AM 50.4460 12.4920 299° West 453 521 38,000  Level FlightAware
01:16AM 50.4980 12.3480 300° West 453 521 38,000  Level FlightAware
01:17AM 50.5400 12.2300 299° West 455 524 38,000  Level FlightAware
01:18AM 50.5840 12.1030 299° West 457 526 38,000  Level FlightAware
01:18AM 50.6220 11.9960 299° West 458 527 38,000  Level FlightAware
01:19AM 50.6670 11.8670 299° West 460 529 38,000  Level FlightAware
01:20AM 50.7130 11.7350 299° West 459 528 38,000  Level FlightAware
01:20AM 50.7530 11.6200 299° West 459 528 38,000  Level FlightAware
01:21AM 50.7940 11.4990 298° West 459 528 38,000  Level FlightAware
01:22AM 50.8400 11.3670 299° West 458 527 38,000  Level FlightAware
01:22AM 50.8800 11.2460 298° West 457 526 38,000  Level FlightAware
01:23AM 50.9250 11.1160 299° West 458 527 38,000  Level FlightAware
01:24AM 50.9650 10.9980 298° West 458 527 38,000  Level FlightAware
01:25AM 51.0100 10.8650 298° West 458 527 38,000  Level FlightAware
01:25AM 51.0510 10.7440 298° West 458 527 38,000  Level FlightAware
01:26AM 51.0880 10.6310 298° West 457 526 38,000  Level FlightAware
01:27AM 51.1330 10.4980 298° West 453 521 38,000  Level FlightAware
01:27AM 51.1710 10.3800 297° West 452 520 38,000  Level FlightAware
01:28AM 51.2150 10.2440 297° West 452 520 38,000  Level FlightAware
01:29AM 51.2480 10.1430 298° West 451 519 38,000  Level FlightAware
01:29AM 51.2920 10.0080 298° West 451 519 38,000  Level FlightAware
01:30AM 51.3350 9.8740 297° West 453 521 38,000  Level FlightAware
01:31AM 51.3730 9.7580 298° West 454 522 38,000  Level FlightAware
01:32AM 51.4110 9.6380 297° West 456 525 38,000  Level FlightAware
01:32AM 51.4550 9.5030 298° West 457 526 38,000  Level FlightAware
01:33AM 51.4940 9.3780 297° West 459 528 38,000  Level FlightAware
01:34AM 51.5380 9.2380 297° West 460 529 38,000  Level FlightAware
01:34AM 51.5750 9.1220 297° West 460 529 38,000  Level FlightAware
01:35AM 51.6180 8.9820 296° West 460 529 38,000  Level FlightAware
01:36AM 51.6560 8.8590 297° West 459 528 38,000  Level FlightAware
01:36AM 51.6930 8.7380 296° West 453 521 38,000  Level FlightAware
01:37AM 51.7360 8.6020 297° West 451 519 38,000  Level FlightAware
01:38AM 51.7730 8.4780 296° West 451 519 38,000  Level FlightAware
01:39AM 51.8080 8.3610 296° West 450 518 38,000  Level FlightAware
01:39AM 51.8490 8.2250 296° West 450 518 38,000  Level FlightAware
01:40AM 51.8860 8.1030 296° West 450 518 38,000  Level FlightAware
01:41AM 51.9250 7.9760 297° West 449 517 38,000  Level FlightAware
01:41AM 51.9610 7.8520 295° West 449 517 38,000 -240 Level FlightAware
01:42AM 51.9970 7.7320 296° West 441 507 37,700 -1,740 Descending FlightAware
01:43AM 52.0380 7.5910 295° West 442 509 35,600 -2,640 Descending FlightAware
01:43AM 52.0730 7.4710 295° West 441 507 34,000 -1,980 Descending FlightAware
01:44AM 52.1080 7.3540 296° West 423 487 33,000 -1,740 Descending FlightAware
01:45AM 52.1430 7.2290 295° West 413 475 31,600 -1,860 Descending FlightAware
01:46AM 52.1750 7.1180 295° West 403 464 30,400 -1,800 Descending FlightAware
01:46AM 52.2120 6.9930 296° West 397 457 29,100 -1,920 Descending FlightAware
01:47AM 52.2560 6.8960 307° West 400 460 27,700 -1,800 Descending FlightAware
01:48AM 52.3020 6.8040 309° West 388 447 26,700 -1,560 Descending FlightAware
01:48AM 52.3510 6.7060 309° West 378 435 25,500 -1,680 Descending FlightAware
01:49AM 52.3950 6.6170 309° West 371 427 24,400 -1,740 Descending FlightAware
01:50AM 52.4370 6.5310 309° West 363 418 23,200 -1,740 Descending FlightAware
01:50AM 52.4860 6.4350 310° West 355 409 22,000 -1,560 Descending FlightAware
01:51AM 52.5290 6.3550 311° West 347 399 21,000 -720 Descending FlightAware
01:52AM 52.5750 6.2710 312° West 343 395 21,000  Level FlightAware
01:53AM 52.6190 6.1910 312° West 347 399 21,000  Level FlightAware
01:53AM 52.6610 6.1110 311° West 345 397 21,000  Level FlightAware
01:53AM 52.6710 6.0760 295° West 317 365 21,000  Level FlightAware
01:54AM 52.6660 6.0160 262° West 260 299 21,000  Level FlightAware
01:55AM 52.6430 5.9520 239° Southwest 241 277 21,000 -540 Level FlightAware
01:55AM 52.6200 5.8820 242° Southwest 236 272 20,300 -1,320 Descending FlightAware
01:56AM 52.5980 5.8190 240° Southwest 236 272 19,200 -1,200 Descending FlightAware
01:57AM 52.5730 5.7470 240° Southwest 237 273 18,600 -1,020 Descending FlightAware
01:57AM 52.5510 5.6850 240° Southwest 231 266 17,800 -1,140 Descending FlightAware
01:58AM 52.5310 5.6250 241° Southwest 225 259 17,100 -1,200 Descending FlightAware
01:59AM 52.5080 5.5560 241° Southwest 228 262 16,100 -1,380 Descending FlightAware
02:00AM 52.5140 5.4810 278° West 275 316 15,200 -1,140 Descending FlightAware
02:00AM 52.5430 5.4410 320° Northwest 314 361 14,800 -1,200 Descending FlightAware
02:00AM 52.5810 5.4400 359° North 332 382 14,100 -1,200 Descending FlightAware
02:01AM 52.6010 5.4590 30° Northeast 323 372 14,000 -240 Descending FlightAware
02:01AM 52.6130 5.4830 51° Northeast 311 358 14,000 -120 Level FlightAware
02:02AM 52.6310 5.5620 69° East 299 344 13,900 -720 Descending FlightAware
02:02AM 52.6530 5.6650 71° East 293 337 13,000 -1,140 Descending FlightAware
02:03AM 52.6370 5.7340 111° Southeast 219 252 12,300 -1,200 Descending FlightAware
02:03AM 52.6230 5.7380 170° South 208 239 11,900 -1,380 Descending FlightAware
02:04AM 52.6020 5.7210 206° Southwest 208 239 11,400 -1,140 Descending FlightAware
02:04AM 52.5720 5.6700 226° Southwest 205 236 10,600 -1,080 Descending FlightAware
02:05AM 52.5480 5.6300 225° Southwest 205 236 9,900 -1,200 Descending FlightAware
02:05AM 52.5350 5.6090 225° Southwest 207 238 9,500 -1,380 Descending FlightAware
02:06AM 52.5170 5.5750 229° Southwest 216 249 8,900 -1,080 Descending FlightAware
02:06AM 52.5120 5.5460 254° West 229 264 8,600 -1,200 Descending FlightAware
02:07AM 52.5140 5.4940 274° West 236 272 8,000 -1,200 Descending FlightAware
02:07AM 52.5170 5.4350 275° West 235 270 7,400 -1,020 Descending FlightAware
02:08AM 52.5190 5.3790 273° West 230 265 6,900 -1,140 Descending FlightAware
02:08AM 52.5210 5.3260 274° West 238 274 6,300 -1,020 Descending FlightAware
02:09AM 52.5240 5.2780 276° West 242 278 6,000 -600 Descending FlightAware
02:09AM 52.5260 5.2240 274° West 237 273 5,800 -480 Descending FlightAware
02:10AM 52.5280 5.1810 274° West 236 272 5,600 -480 Descending FlightAware
02:10AM 52.5310 5.1270 275° West 238 274 5,400 -540 Descending FlightAware
02:11AM 52.5360 5.0730 279° West 237 273 5,100 -480 Descending FlightAware
02:11AM 52.5400 5.0320 279° West 235 270 5,000 -480 Descending FlightAware
02:11AM 52.5450 4.9750 278° West 228 262 4,700 -660 Descending FlightAware
02:12AM 52.5490 4.9340 279° West 225 259 4,400 -660 Descending FlightAware
02:12AM 52.5530 4.8870 278° West 223 257 4,100 -720 Descending FlightAware
02:13AM 52.5550 4.8600 277° West 222 255 3,900 -900 Descending FlightAware
02:13AM 52.5580 4.8230 278° West 221 254 3,600 -660 Descending FlightAware
02:16AM 52.3253 4.7678 188° South  Level Estimated
02:17AM 52.3086 4.7639 188° South  Level Estimated
02:18AM 52.3086 4.7639 348° North  Level Estimated
02:18AM 52.3370 4.7410 348° North 143 165 600  Level FlightAware